createdAt,value
2023-05-09T00:00:32.029Z,4.20
2023-05-09T00:03:33.551Z,4.28
2023-05-09T00:06:35.323Z,4.38
2023-05-09T00:09:36.848Z,4.72
2023-05-09T00:12:38.307Z,3.53
2023-05-09T00:15:39.839Z,4.45
2023-05-09T00:18:42.273Z,4.13
2023-05-09T00:21:43.811Z,3.65
2023-05-09T00:24:45.366Z,4.53
2023-05-09T00:27:47.011Z,4.00
2023-05-09T00:30:48.527Z,3.40
2023-05-09T00:33:50.313Z,3.60
2023-05-09T00:36:51.791Z,3.60
2023-05-09T00:39:53.283Z,3.88
2023-05-09T00:42:58.156Z,3.97
2023-05-09T00:45:59.819Z,3.85
2023-05-09T00:49:01.567Z,4.40
2023-05-09T00:52:04.884Z,3.95
2023-05-09T00:55:08.300Z,4.13
2023-05-09T00:58:10.966Z,3.65
2023-05-09T01:01:12.683Z,4.00
2023-05-09T01:04:15.098Z,3.80
2023-05-09T01:07:19.568Z,3.97
2023-05-09T01:10:22.026Z,4.70
2023-05-09T01:13:46.839Z,4.30
2023-05-09T01:17:02.648Z,3.72
2023-05-09T01:20:35.665Z,4.47
2023-05-09T01:23:46.617Z,3.72
2023-05-09T01:27:12.707Z,4.57
2023-05-09T01:30:16.786Z,3.90
2023-05-09T01:33:20.261Z,3.95
2023-05-09T01:36:23.271Z,3.47
2023-05-09T01:39:26.789Z,3.67
2023-05-09T01:42:36.552Z,3.35
2023-05-09T01:45:40.526Z,3.28
2023-05-09T01:48:42.835Z,4.25
2023-05-09T01:51:45.079Z,3.10
2023-05-09T01:54:48.347Z,3.55
2023-05-09T01:57:50.328Z,3.53
2023-05-09T02:00:52.966Z,3.40
2023-05-09T02:03:56.101Z,4.28
2023-05-09T02:06:58.785Z,3.15
2023-05-09T02:10:00.810Z,3.53
2023-05-09T02:13:02.330Z,3.80
2023-05-09T02:16:05.840Z,3.10
2023-05-09T02:19:07.559Z,3.33
2023-05-09T02:22:09.468Z,3.60
2023-05-09T02:25:15.271Z,3.95
2023-05-09T02:28:19.476Z,3.60
2023-05-09T02:31:24.054Z,3.30
2023-05-09T02:34:25.802Z,3.42
2023-05-09T02:37:28.562Z,3.15
2023-05-09T02:40:31.057Z,3.35
2023-05-09T02:43:32.564Z,3.60
2023-05-09T02:46:34.209Z,3.83
2023-05-09T02:49:35.852Z,3.13
2023-05-09T02:52:39.112Z,2.78
2023-05-09T02:55:40.610Z,2.97
2023-05-09T02:58:42.173Z,3.92
2023-05-09T03:01:43.722Z,3.88
2023-05-09T03:04:45.548Z,3.97
2023-05-09T03:07:47.391Z,3.13
2023-05-09T03:10:48.901Z,3.25
2023-05-09T03:13:51.167Z,3.80
2023-05-09T03:16:52.731Z,3.15
2023-05-09T03:20:01.703Z,3.08
2023-05-09T03:23:05.515Z,2.70
2023-05-09T03:26:06.975Z,3.03
2023-05-09T03:29:08.651Z,3.80
2023-05-09T03:32:10.646Z,4.10
2023-05-09T03:35:12.384Z,3.20
2023-05-09T03:38:13.981Z,3.05
2023-05-09T03:41:17.613Z,4.38
2023-05-09T03:44:21.366Z,3.53
2023-05-09T03:47:22.906Z,3.40
2023-05-09T03:50:24.569Z,3.92
2023-05-09T03:53:28.237Z,4.15
2023-05-09T03:56:30.054Z,3.53
2023-05-09T03:59:31.759Z,3.03
2023-05-09T04:02:34.486Z,3.70
2023-05-09T04:05:36.387Z,3.40
2023-05-09T04:08:39.689Z,3.58
2023-05-09T04:11:42.222Z,3.85
2023-05-09T04:14:48.946Z,3.70
2023-05-09T04:17:51.442Z,3.15
2023-05-09T04:20:53.456Z,3.90
2023-05-09T04:23:55.699Z,2.75
2023-05-09T04:27:04.796Z,3.95
2023-05-09T04:30:06.941Z,3.85
2023-05-09T04:33:09.513Z,3.53
2023-05-09T04:36:11.275Z,3.10
2023-05-09T04:39:13.785Z,3.05
2023-05-09T04:42:24.275Z,3.70
2023-05-09T04:45:26.638Z,4.10
2023-05-09T04:48:28.993Z,4.63
2023-05-09T04:51:30.533Z,3.17
2023-05-09T04:54:32.008Z,4.18
2023-05-09T04:57:33.756Z,3.95
2023-05-09T05:00:36.493Z,3.50
2023-05-09T05:03:38.681Z,3.30
2023-05-09T05:06:40.873Z,3.03
2023-05-09T05:09:43.004Z,4.43
2023-05-09T05:12:44.846Z,3.08
2023-05-09T05:15:48.352Z,4.03
2023-05-09T05:18:50.221Z,3.13
2023-05-09T05:21:53.733Z,4.90
2023-05-09T05:24:55.396Z,3.05
2023-05-09T05:27:57.406Z,3.95
2023-05-09T05:30:58.911Z,2.97
2023-05-09T05:34:00.966Z,3.28
2023-05-09T05:37:27.921Z,3.05
2023-05-09T05:40:29.606Z,4.43
2023-05-09T05:43:32.860Z,3.00
2023-05-09T05:46:35.141Z,4.40
2023-05-09T05:49:37.180Z,2.80
2023-05-09T05:52:39.856Z,2.58
2023-05-09T05:55:45.785Z,3.13
2023-05-09T05:58:47.353Z,3.53
2023-05-09T06:01:49.148Z,3.15
2023-05-09T06:04:50.711Z,3.03
2023-05-09T06:07:53.073Z,3.28
2023-05-09T06:10:55.194Z,4.45
2023-05-09T06:13:56.755Z,2.83
2023-05-09T06:16:59.453Z,3.60
2023-05-09T06:20:01.146Z,3.92
2023-05-09T06:23:02.736Z,2.75
2023-05-09T06:26:04.458Z,5.10
2023-05-09T06:29:06.502Z,2.97
2023-05-09T06:32:08.164Z,3.45
2023-05-09T06:35:09.734Z,3.25
2023-05-09T06:38:11.262Z,4.00
2023-05-09T06:41:12.856Z,3.53
2023-05-09T06:44:14.368Z,3.50
2023-05-09T06:47:16.052Z,3.20
2023-05-09T06:50:17.564Z,3.05
2023-05-09T06:53:19.053Z,3.42
2023-05-09T06:56:22.709Z,2.83
2023-05-09T06:59:24.363Z,3.00
2023-05-09T07:02:25.960Z,2.90
2023-05-09T07:05:27.656Z,3.50
2023-05-09T07:08:29.197Z,3.10
2023-05-09T07:11:37.039Z,2.50
2023-05-09T07:14:38.582Z,3.08
2023-05-09T07:17:40.301Z,2.97
2023-05-09T07:20:41.899Z,3.53
2023-05-09T07:23:43.375Z,3.33
2023-05-09T07:26:44.861Z,3.50
2023-05-09T07:29:46.388Z,3.50
2023-05-09T07:32:47.880Z,2.65
2023-05-09T07:35:49.614Z,2.75
2023-05-09T07:38:53.454Z,3.28
2023-05-09T07:41:54.917Z,2.83
2023-05-09T07:44:56.630Z,2.70
2023-05-09T07:47:58.193Z,3.28
2023-05-09T07:50:59.746Z,3.25
2023-05-09T07:54:01.289Z,2.88
2023-05-09T07:57:02.862Z,3.13
2023-05-09T08:00:06.320Z,3.00
2023-05-09T08:03:15.025Z,3.25
2023-05-09T08:06:16.818Z,3.65
2023-05-09T08:09:18.631Z,3.83
2023-05-09T08:12:20.198Z,3.35
2023-05-09T08:15:21.792Z,2.80
2023-05-09T08:18:23.311Z,3.30
2023-05-09T08:21:25.055Z,3.40
2023-05-09T08:24:26.648Z,3.10
2023-05-09T08:27:28.126Z,3.47
2023-05-09T08:30:29.758Z,3.22
2023-05-09T08:33:31.611Z,3.45
2023-05-09T08:36:33.769Z,3.30
2023-05-09T08:39:35.220Z,3.03
2023-05-09T08:42:38.276Z,3.78
2023-05-09T08:45:58.925Z,2.42
2023-05-09T08:49:00.958Z,2.78
2023-05-09T08:52:02.910Z,3.47
2023-05-09T08:55:04.990Z,3.25
2023-05-09T08:58:07.098Z,3.67
2023-05-09T09:01:09.482Z,2.60
2023-05-09T09:04:13.680Z,4.03
2023-05-09T09:07:16.498Z,3.47
2023-05-09T09:10:20.804Z,4.00
2023-05-09T09:13:23.213Z,3.85
2023-05-09T09:16:26.603Z,3.05
2023-05-09T09:19:31.421Z,4.07
2023-05-09T09:22:34.810Z,3.22
2023-05-09T09:25:36.718Z,3.33
2023-05-09T09:28:38.296Z,3.22
2023-05-09T09:31:44.676Z,5.30
2023-05-09T09:37:58.496Z,3.47
2023-05-09T09:41:01.252Z,3.60
2023-05-09T09:44:12.385Z,3.58
2023-05-09T09:47:13.892Z,4.55
2023-05-09T09:50:20.121Z,3.10
2023-05-09T09:53:21.896Z,3.97
2023-05-09T09:56:39.137Z,4.13
2023-05-09T09:59:40.712Z,3.50
2023-05-09T10:02:50.434Z,3.58
2023-05-09T10:06:01.851Z,3.83
2023-05-09T10:09:03.434Z,4.93
2023-05-09T10:12:06.803Z,5.65
2023-05-09T10:15:09.508Z,4.07
2023-05-09T10:18:14.634Z,6.13
2023-05-09T10:21:16.286Z,3.88
2023-05-09T10:24:27.389Z,3.35
2023-05-09T10:27:32.125Z,5.13
2023-05-09T10:30:41.162Z,3.75
2023-05-09T10:33:49.237Z,4.18
2023-05-09T10:36:50.885Z,4.18
2023-05-09T10:39:53.670Z,3.40
2023-05-09T10:42:55.205Z,5.03
2023-05-09T10:45:56.847Z,5.70
2023-05-09T10:48:59.003Z,3.60
2023-05-09T10:52:00.523Z,5.72
2023-05-09T10:55:05.031Z,4.35
2023-05-09T10:58:37.279Z,4.72
2023-05-09T11:01:39.538Z,4.85
2023-05-09T11:04:41.492Z,5.68
2023-05-09T11:07:43.405Z,5.20
2023-05-09T11:10:45.068Z,4.60
2023-05-09T11:13:46.537Z,3.97
2023-05-09T11:16:59.553Z,5.65
2023-05-09T11:20:05.661Z,5.25
2023-05-09T11:23:08.784Z,4.07
2023-05-09T11:26:10.386Z,4.47
2023-05-09T11:29:12.264Z,4.25
2023-05-09T11:32:15.313Z,4.05
2023-05-09T11:35:21.509Z,5.05
2023-05-09T11:38:23.040Z,3.97
2023-05-09T11:41:24.620Z,5.45
2023-05-09T11:44:27.970Z,5.55
2023-05-09T11:47:30.758Z,5.97
2023-05-09T11:50:32.318Z,7.10
2023-05-09T11:53:34.109Z,6.80
2023-05-09T11:56:37.988Z,5.85
2023-05-09T11:59:39.585Z,7.47
2023-05-09T12:02:44.574Z,6.30
2023-05-09T12:05:48.403Z,9.68
2023-05-09T12:08:50.481Z,6.18
2023-05-09T12:11:52.165Z,6.05
2023-05-09T12:14:53.694Z,5.68
2023-05-09T12:18:06.538Z,5.95
2023-05-09T12:21:08.083Z,7.10
2023-05-09T12:24:09.887Z,7.90
2023-05-09T12:27:11.670Z,6.10
2023-05-09T12:30:16.087Z,6.07
2023-05-09T12:33:18.606Z,5.47
2023-05-09T12:36:20.122Z,6.57
2023-05-09T12:39:22.885Z,8.77
2023-05-09T12:42:27.606Z,5.22
2023-05-09T12:45:32.780Z,5.30
2023-05-09T12:48:38.811Z,6.38
2023-05-09T12:51:49.326Z,6.85
2023-05-09T12:54:52.600Z,4.75
2023-05-09T12:58:02.571Z,5.97
2023-05-09T13:01:05.080Z,7.07
2023-05-09T13:04:07.489Z,4.38
2023-05-09T13:07:13.037Z,5.20
2023-05-09T13:10:21.463Z,5.15
2023-05-09T13:13:26.627Z,5.43
2023-05-09T13:16:28.780Z,7.07
2023-05-09T13:19:30.295Z,4.10
2023-05-09T13:22:32.301Z,4.85
2023-05-09T13:25:33.819Z,6.82
2023-05-09T13:28:36.314Z,9.77
2023-05-09T13:31:37.963Z,4.13
2023-05-09T13:34:39.462Z,5.32
2023-05-09T13:37:40.999Z,5.35
2023-05-09T13:40:42.471Z,5.50
2023-05-09T13:43:43.947Z,4.40
2023-05-09T13:46:45.867Z,5.97
2023-05-09T13:49:47.404Z,6.28
2023-05-09T13:52:49.893Z,5.35
2023-05-09T13:55:51.386Z,5.60
2023-05-09T13:58:52.921Z,5.93
2023-05-09T14:01:57.323Z,4.10
2023-05-09T14:04:58.966Z,5.90
2023-05-09T14:08:01.509Z,5.28
2023-05-09T14:11:03.028Z,5.88
2023-05-09T14:14:04.492Z,5.28
2023-05-09T14:17:05.918Z,5.72
2023-05-09T14:20:08.132Z,4.13
2023-05-09T14:23:09.633Z,6.05
2023-05-09T14:26:11.147Z,5.82
2023-05-09T14:29:12.887Z,7.00
2023-05-09T14:32:14.532Z,5.90
2023-05-09T14:35:16.137Z,4.80
2023-05-09T14:38:17.936Z,6.00
2023-05-09T14:41:21.422Z,5.53
2023-05-09T14:44:24.903Z,5.63
2023-05-09T14:47:26.446Z,5.18
2023-05-09T14:50:28.070Z,4.50
2023-05-09T14:53:30.061Z,5.20
2023-05-09T14:56:31.572Z,6.10
2023-05-09T14:59:34.808Z,6.95
2023-05-09T15:02:39.383Z,6.30
2023-05-09T15:05:41.711Z,5.18
2023-05-09T15:08:43.266Z,6.43
2023-05-09T15:11:48.878Z,6.68
2023-05-09T15:14:53.786Z,5.75
2023-05-09T15:17:55.427Z,6.07
2023-05-09T15:20:57.359Z,7.03
2023-05-09T15:23:59.313Z,6.18
2023-05-09T15:27:00.816Z,5.22
2023-05-09T15:30:02.407Z,5.32
2023-05-09T15:33:03.986Z,6.03
2023-05-09T15:36:06.734Z,7.07
2023-05-09T15:39:08.486Z,6.15
2023-05-09T15:42:12.180Z,6.85
2023-05-09T15:45:13.712Z,6.47
2023-05-09T15:48:16.237Z,5.70
2023-05-09T15:51:17.712Z,5.40
2023-05-09T15:54:20.194Z,7.03
2023-05-09T15:57:21.966Z,6.95
2023-05-09T16:00:23.548Z,9.93
2023-05-09T16:03:25.323Z,5.93
2023-05-09T16:06:27.272Z,8.98
2023-05-09T16:09:28.763Z,7.05
2023-05-09T16:12:32.704Z,7.40
2023-05-09T16:15:35.036Z,6.05
2023-05-09T16:18:36.487Z,7.07
2023-05-09T16:21:39.181Z,6.38
2023-05-09T16:24:40.772Z,5.35
2023-05-09T16:27:42.281Z,8.15
2023-05-09T16:30:43.773Z,8.07
2023-05-09T16:33:46.906Z,11.50
2023-05-09T16:36:48.517Z,9.85
2023-05-09T16:39:50.078Z,10.85
2023-05-09T16:42:51.612Z,7.45
2023-05-09T16:45:53.152Z,9.27
2023-05-09T16:48:55.750Z,8.18
2023-05-09T16:51:57.332Z,6.28
2023-05-09T16:54:59.345Z,8.30
2023-05-09T16:58:01.164Z,7.50
2023-05-09T17:01:02.751Z,7.30
2023-05-09T17:04:06.605Z,7.82
2023-05-09T17:07:08.648Z,7.30
2023-05-09T17:10:10.977Z,7.18
2023-05-09T17:13:12.713Z,9.55
2023-05-09T17:16:14.513Z,8.45
2023-05-09T17:19:16.535Z,7.43
2023-05-09T17:22:18.008Z,7.57
2023-05-09T17:25:19.508Z,12.02
2023-05-09T17:28:21.103Z,7.65
2023-05-09T17:31:22.728Z,6.95
2023-05-09T17:34:24.345Z,8.20
2023-05-09T17:37:25.843Z,11.40
2023-05-09T17:40:27.298Z,9.00
2023-05-09T17:43:28.989Z,10.05
2023-05-09T17:46:32.578Z,6.53
2023-05-09T17:49:34.070Z,8.77
2023-05-09T17:52:36.397Z,6.38
2023-05-09T17:55:37.913Z,5.85
2023-05-09T17:58:39.412Z,7.57
2023-05-09T18:01:41.205Z,6.22
2023-05-09T18:04:44.544Z,6.13
2023-05-09T18:07:46.021Z,6.50
2023-05-09T18:10:47.503Z,5.63
2023-05-09T18:13:48.993Z,6.75
2023-05-09T18:16:50.704Z,5.00
2023-05-09T18:19:52.193Z,6.95
2023-05-09T18:22:54.315Z,5.57
2023-05-09T18:25:56.038Z,4.88
2023-05-09T18:28:57.846Z,5.10
2023-05-09T18:31:59.337Z,8.32
2023-05-09T18:35:00.900Z,5.30
2023-05-09T18:38:02.402Z,4.45
2023-05-09T18:41:06.044Z,5.57
2023-05-09T18:44:08.490Z,5.00
2023-05-09T18:47:10.173Z,4.97
2023-05-09T18:50:13.545Z,4.85
2023-05-09T18:53:15.221Z,4.07
2023-05-09T18:56:18.943Z,4.32
2023-05-09T18:59:20.593Z,5.15
2023-05-09T19:02:23.402Z,4.55
2023-05-09T19:05:25.886Z,5.15
2023-05-09T19:08:27.910Z,3.28
2023-05-09T19:11:29.476Z,5.13
2023-05-09T19:14:31.177Z,4.32
2023-05-09T19:17:32.752Z,4.57
2023-05-09T19:20:34.261Z,6.72
2023-05-09T19:23:35.821Z,5.53
2023-05-09T19:26:37.382Z,6.25
2023-05-09T19:29:38.915Z,4.03
2023-05-09T19:32:41.816Z,4.47
2023-05-09T19:35:43.699Z,4.55
2023-05-09T19:38:45.442Z,7.30
2023-05-09T19:41:46.936Z,4.28
2023-05-09T19:44:48.525Z,5.07
2023-05-09T19:47:50.084Z,3.53
2023-05-09T19:50:56.765Z,4.15
2023-05-09T19:53:58.261Z,5.18
2023-05-09T19:56:59.736Z,3.83
2023-05-09T20:00:01.423Z,4.00
2023-05-09T20:03:04.205Z,4.10
2023-05-09T20:06:05.914Z,4.95
2023-05-09T20:09:07.523Z,7.18
2023-05-09T20:12:09.626Z,5.18
2023-05-09T20:15:11.998Z,4.10
2023-05-09T20:18:16.119Z,5.00
2023-05-09T20:21:17.609Z,4.72
2023-05-09T20:24:19.725Z,4.05
2023-05-09T20:27:21.936Z,4.85
2023-05-09T20:30:23.410Z,4.63
2023-05-09T20:33:24.878Z,4.75
2023-05-09T20:36:27.983Z,4.57
2023-05-09T20:39:29.484Z,5.57
2023-05-09T20:42:30.946Z,3.35
2023-05-09T20:45:32.612Z,4.90
2023-05-09T20:48:34.221Z,4.35
2023-05-09T20:51:35.777Z,3.40
2023-05-09T20:54:37.590Z,3.50
2023-05-09T20:57:39.092Z,4.70
2023-05-09T21:00:40.899Z,4.10
2023-05-09T21:03:42.342Z,4.25
2023-05-09T21:06:43.773Z,3.58
2023-05-09T21:09:47.450Z,3.22
2023-05-09T21:12:48.956Z,3.42
2023-05-09T21:15:50.868Z,4.65
2023-05-09T21:18:52.358Z,3.65
2023-05-09T21:21:54.977Z,3.42
2023-05-09T21:24:56.402Z,3.70
2023-05-09T21:27:57.854Z,3.40
2023-05-09T21:31:01.459Z,4.45
2023-05-09T21:34:09.446Z,3.60
2023-05-09T21:37:10.958Z,5.72
2023-05-09T21:40:12.979Z,3.17
2023-05-09T21:43:15.366Z,3.85
2023-05-09T21:46:16.876Z,4.00
2023-05-09T21:49:18.374Z,3.30
2023-05-09T21:52:19.918Z,4.68
2023-05-09T21:55:21.695Z,3.50
2023-05-09T21:58:23.222Z,4.05
2023-05-09T22:01:24.753Z,3.40
2023-05-09T22:04:26.300Z,3.58
2023-05-09T22:07:27.813Z,3.05
2023-05-09T22:10:29.354Z,3.28
2023-05-09T22:13:31.032Z,3.35
2023-05-09T22:16:32.755Z,3.92
2023-05-09T22:19:34.213Z,3.60
2023-05-09T22:22:35.688Z,3.15
2023-05-09T22:25:38.227Z,2.78
2023-05-09T22:28:39.657Z,3.67
2023-05-09T22:31:41.334Z,3.70
2023-05-09T22:34:42.785Z,3.65
2023-05-09T22:37:44.228Z,3.42
2023-05-09T22:40:45.903Z,3.75
2023-05-09T22:43:47.406Z,3.65
2023-05-09T22:46:48.869Z,3.55
2023-05-09T22:49:50.553Z,3.58
2023-05-09T22:52:52.055Z,4.22
2023-05-09T22:55:54.674Z,3.05
2023-05-09T22:58:56.255Z,3.67
2023-05-09T23:01:58.685Z,3.28
2023-05-09T23:05:00.167Z,2.75
2023-05-09T23:08:01.660Z,2.90
2023-05-09T23:11:04.286Z,3.60
2023-05-09T23:14:06.374Z,3.40
2023-05-09T23:17:07.857Z,2.70
2023-05-09T23:20:09.732Z,3.60
2023-05-09T23:23:11.248Z,3.38
2023-05-09T23:26:12.717Z,3.70
2023-05-09T23:29:14.937Z,3.10
2023-05-09T23:32:16.415Z,3.00
2023-05-09T23:35:19.085Z,3.53
2023-05-09T23:38:20.634Z,3.03
2023-05-09T23:41:22.415Z,3.20
2023-05-09T23:44:23.951Z,3.47
2023-05-09T23:47:25.449Z,3.03
2023-05-09T23:50:26.930Z,3.65
2023-05-09T23:53:28.482Z,3.72
2023-05-09T23:56:30.566Z,3.35
2023-05-09T23:59:32.078Z,3.53
